DKEKS EDXW-EDXW
Flight info
| Callsign | DKEKS |
|---|---|
| Flight time | 0h 11m |
| Altitude | |
| Route | |
| Aircraft | A33E |
Departure
| Time | 2026-04-30 18:25 |
|---|---|
| Airport | Westerland Sylt Airport (EDXW) |
Arrival
| Time | 2026-04-30 18:36 |
|---|---|
| Airport | Westerland Sylt Airport (EDXW) |
| Time | Latitude | Longitude | Altitude | Speed | Heading |
|---|---|---|---|---|---|
| 2026-04-30 18:18 | 54.91406 | 8.32435 | 20 ft | 0 kts | 85° |
| 2026-04-30 18:19 | 54.91401 | 8.32481 | 20 ft | 14 kts | 120° |
| 2026-04-30 18:20 | 54.91326 | 8.32509 | 20 ft | 15 kts | 175° |
| 2026-04-30 18:20 | 54.91222 | 8.32569 | 21 ft | 16 kts | 155° |
| 2026-04-30 18:20 | 54.91109 | 8.32698 | 21 ft | 24 kts | 133° |
| 2026-04-30 18:20 | 54.91025 | 8.32965 | 26 ft | 25 kts | 134° |
| 2026-04-30 18:21 | 54.90901 | 8.33157 | 28 ft | 24 kts | 154° |
| 2026-04-30 18:21 | 54.90733 | 8.33226 | 28 ft | 26 kts | 174° |
| 2026-04-30 18:21 | 54.90542 | 8.33255 | 27 ft | 30 kts | 169° |
| 2026-04-30 18:21 | 54.90358 | 8.33416 | 30 ft | 31 kts | 139° |
| 2026-04-30 18:22 | 54.90259 | 8.33747 | 26 ft | 30 kts | 102° |
| 2026-04-30 18:22 | 54.90274 | 8.34369 | 28 ft | 24 kts | 70° |
| 2026-04-30 18:22 | 54.90392 | 8.34612 | 29 ft | 25 kts | 44° |
| 2026-04-30 18:23 | 54.90483 | 8.34757 | 29 ft | 13 kts | 45° |
| 2026-04-30 18:23 | 54.90552 | 8.34870 | 29 ft | 16 kts | 45° |
| 2026-04-30 18:23 | 54.90613 | 8.34928 | 29 ft | 2 kts | 310° |
| 2026-04-30 18:23 | 54.90627 | 8.34908 | 29 ft | 15 kts | 325° |
| 2026-04-30 18:24 | 54.91175 | 8.34228 | 115 ft | 69 kts | 325° |
| 2026-04-30 18:24 | 54.91542 | 8.33781 | 333 ft | 67 kts | 326° |
| 2026-04-30 18:24 | 54.91910 | 8.33311 | 514 ft | 69 kts | 326° |
| 2026-04-30 18:25 | 54.92295 | 8.32863 | 752 ft | 64 kts | 329° |
| 2026-04-30 18:25 | 54.92603 | 8.33782 | 1024 ft | 68 kts | 121° |
| 2026-04-30 18:25 | 54.92336 | 8.34438 | 1107 ft | 66 kts | 124° |
| 2026-04-30 18:26 | 54.91922 | 8.35656 | 1019 ft | 85 kts | 210° |
| 2026-04-30 18:26 | 54.91472 | 8.34515 | 219 ft | 141 kts | 238° |
| 2026-04-30 18:26 | 54.91061 | 8.33083 | 507 ft | 81 kts | 273° |
| 2026-04-30 18:27 | 54.91838 | 8.32544 | 878 ft | 64 kts | 358° |
| 2026-04-30 18:27 | 54.92299 | 8.32690 | 1040 ft | 74 kts | 44° |
| 2026-04-30 18:28 | 54.92014 | 8.34153 | 1081 ft | 75 kts | 135° |
| 2026-04-30 18:28 | 54.91620 | 8.34756 | 1087 ft | 75 kts | 135° |
| 2026-04-30 18:28 | 54.90786 | 8.35880 | 1101 ft | 78 kts | 146° |
| 2026-04-30 18:29 | 54.90338 | 8.36395 | 1145 ft | 69 kts | 170° |
| 2026-04-30 18:29 | 54.91566 | 8.33756 | 46 ft | 128 kts | 326° |
| 2026-04-30 18:30 | 54.92609 | 8.33747 | 905 ft | 73 kts | 55° |
| 2026-04-30 18:30 | 54.92988 | 8.35241 | 1393 ft | 69 kts | 63° |
| 2026-04-30 18:31 | 54.93227 | 8.35914 | 1644 ft | 70 kts | 63° |
| 2026-04-30 18:31 | 54.93720 | 8.37332 | 2152 ft | 68 kts | 65° |
| 2026-04-30 18:32 | 54.94185 | 8.38562 | 2308 ft | 40 kts | 62° |
| 2026-04-30 18:32 | 54.94413 | 8.38801 | 1540 ft | 73 kts | 222° |
| 2026-04-30 18:32 | 54.94136 | 8.38533 | 1196 ft | 94 kts | 173° |
| 2026-04-30 18:35 | 54.93570 | 8.38193 | 1083 ft | 103 kts | 207° |
| 2026-04-30 18:35 | 54.92886 | 8.37480 | 781 ft | 123 kts | 212° |
| 2026-04-30 18:36 | 54.91711 | 8.35223 | 66 ft | 88 kts | 243° |
| 2026-04-30 18:36 | 54.91464 | 8.34477 | 46 ft | 66 kts | 246° |
| 2026-04-30 18:36 | 54.91139 | 8.33484 | 26 ft | 38 kts | 241° |
| 2026-04-30 18:37 | 54.91030 | 8.33179 | 27 ft | 23 kts | 242° |
| 2026-04-30 18:37 | 54.91030 | 8.32963 | 26 ft | 15 kts | 324° |
| 2026-04-30 18:37 | 54.91173 | 8.32684 | 21 ft | 30 kts | 345° |
| 2026-04-30 18:37 | 54.91206 | 8.32533 | 21 ft | 12 kts | 313° |